Time;durP1;ratioP1;P1;durP2;ratioP2;P2;SDS_P1;SDS_P2;PMS_P1;PMS_P2;Temp;Humidity;BMP_temperature;BMP_pressure;BME280_temperature;BME280_humidity;BME280_pressure;Samples;Min_cycle;Max_cycle;Signal;HPM_P1;HPM_P2
2021/05/12 00:02:21;;;;;;;18.35;14.57;;;14.80;99.90;;;;;;5094538;28;20206;-64
2021/05/12 00:04:48;;;;;;;17.40;15.10;;;14.80;99.90;;;;;;5094667;28;20567;-65
2021/05/12 00:07:16;;;;;;;15.95;14.25;;;14.70;99.90;;;;;;5094601;28;20283;-63
2021/05/12 00:09:44;;;;;;;17.40;13.55;;;14.70;99.90;;;;;;5094609;28;20196;-64
2021/05/12 00:12:11;;;;;;;15.40;13.80;;;14.70;99.90;;;;;;5094151;28;20203;-64
2021/05/12 00:14:40;;;;;;;19.60;13.27;;;14.70;99.90;;;;;;5093891;28;20566;-64
2021/05/12 00:17:09;;;;;;;16.65;14.27;;;14.60;99.90;;;;;;5094284;28;20239;-58
2021/05/12 00:19:40;;;;;;;17.55;13.95;;;14.60;99.90;;;;;;5094193;28;20270;-59
2021/05/12 00:22:18;;;;;;;17.30;13.55;;;14.60;99.90;;;;;;5094026;28;20189;-59
2021/05/12 00:24:45;;;;;;;14.23;12.70;;;14.60;99.90;;;;;;5094028;28;20180;-60
2021/05/12 00:27:13;;;;;;;13.65;12.07;;;14.50;99.90;;;;;;5094195;28;20278;-59
2021/05/12 00:29:41;;;;;;;15.88;12.23;;;14.50;99.90;;;;;;5093695;28;20676;-64
2021/05/12 00:32:08;;;;;;;11.95;10.75;;;14.50;99.90;;;;;;5093688;28;20649;-64
2021/05/12 00:34:35;;;;;;;13.00;11.55;;;14.50;99.90;;;;;;5093914;28;20196;-64
2021/05/12 00:37:03;;;;;;;14.23;11.32;;;14.50;99.90;;;;;;5093234;28;20216;-64
2021/05/12 00:39:30;;;;;;;12.52;11.23;;;14.50;99.90;;;;;;5093871;28;20212;-64
2021/05/12 00:42:00;;;;;;;11.93;10.38;;;14.60;99.90;;;;;;5093853;28;20257;-64
2021/05/12 00:44:27;;;;;;;12.27;10.82;;;14.60;99.90;;;;;;5093180;28;20261;-64
2021/05/12 00:46:55;;;;;;;12.68;10.70;;;14.70;99.90;;;;;;5093773;28;20325;-63
2021/05/12 00:49:24;;;;;;;13.73;11.95;;;14.80;99.90;;;;;;5093380;28;20204;-64
2021/05/12 00:51:51;;;;;;;14.10;11.18;;;14.70;99.90;;;;;;5093446;28;20743;-63
2021/05/12 00:54:19;;;;;;;14.30;12.23;;;14.80;99.90;;;;;;5093585;28;20199;-64
2021/05/12 00:56:46;;;;;;;12.43;11.07;;;14.70;99.90;;;;;;5093569;28;20512;-64
2021/05/12 00:59:14;;;;;;;14.95;12.70;;;14.70;99.90;;;;;;5092897;28;20208;-64
2021/05/12 01:01:41;;;;;;;13.35;11.95;;;14.70;99.90;;;;;;5093428;28;20287;-63
2021/05/12 01:04:10;;;;;;;14.43;11.60;;;14.70;99.90;;;;;;5093431;28;20250;-63
2021/05/12 01:06:39;;;;;;;13.63;11.38;;;14.80;99.90;;;;;;5093491;28;20223;-64
2021/05/12 01:09:09;;;;;;;14.48;12.25;;;14.80;99.90;;;;;;5093087;28;20241;-64
2021/05/12 01:11:37;;;;;;;15.65;13.07;;;14.80;99.90;;;;;;5093414;28;20220;-64
2021/05/12 01:14:05;;;;;;;16.45;14.07;;;14.80;99.90;;;;;;5092890;28;20200;-64
2021/05/12 01:16:32;;;;;;;16.30;13.50;;;14.80;99.90;;;;;;5093223;28;20211;-64
2021/05/12 01:19:00;;;;;;;15.65;13.73;;;14.70;99.90;;;;;;5093182;28;20282;-64
2021/05/12 01:21:28;;;;;;;15.93;13.77;;;14.70;99.90;;;;;;5093214;28;20223;-63
2021/05/12 01:23:56;;;;;;;17.33;14.32;;;14.70;99.90;;;;;;5092919;28;20291;-63
2021/05/12 01:26:24;;;;;;;16.20;13.57;;;14.70;99.90;;;;;;5092649;28;20202;-63
2021/05/12 01:28:55;;;;;;;17.70;14.30;;;14.70;99.90;;;;;;5092856;28;20206;-63
2021/05/12 01:31:28;;;;;;;14.70;13.20;;;14.70;99.90;;;;;;5092867;28;20526;-63
2021/05/12 01:33:56;;;;;;;19.70;13.82;;;14.70;99.90;;;;;;5092906;28;20555;-64
2021/05/12 01:36:23;;;;;;;15.27;12.88;;;14.70;99.90;;;;;;5092828;28;20270;-63
2021/05/12 01:38:53;;;;;;;14.65;12.88;;;14.60;99.90;;;;;;5092401;28;20274;-63
2021/05/12 01:41:23;;;;;;;16.85;13.95;;;14.60;99.90;;;;;;5092819;28;20207;-64
2021/05/12 01:43:51;;;;;;;16.38;14.43;;;14.60;99.90;;;;;;5092675;28;20607;-64
2021/05/12 01:46:19;;;;;;;18.65;14.85;;;14.70;99.90;;;;;;5092911;28;20239;-64
2021/05/12 01:48:46;;;;;;;16.10;14.40;;;14.60;99.90;;;;;;5092492;28;20199;-64
2021/05/12 01:51:15;;;;;;;17.42;14.65;;;14.60;99.90;;;;;;5092854;28;20262;-64
2021/05/12 01:53:43;;;;;;;18.13;14.68;;;14.60;99.90;;;;;;5092472;28;20230;-65
2021/05/12 01:56:12;;;;;;;17.55;15.13;;;14.70;99.90;;;;;;5092353;28;20298;-64
2021/05/12 01:58:40;;;;;;;17.95;16.00;;;14.60;99.90;;;;;;5092361;28;20333;-64
2021/05/12 02:01:07;;;;;;;17.70;15.80;;;14.60;99.90;;;;;;5092643;28;20300;-64
2021/05/12 02:03:34;;;;;;;18.52;15.93;;;14.60;99.90;;;;;;5092581;28;20234;-64
2021/05/12 02:06:02;;;;;;;18.50;16.13;;;14.50;99.90;;;;;;5092630;28;20204;-63
2021/05/12 02:08:30;;;;;;;17.33;15.40;;;14.50;99.90;;;;;;5092362;28;20210;-64
2021/05/12 02:10:59;;;;;;;16.15;14.55;;;14.60;99.90;;;;;;5092592;28;20210;-60
2021/05/12 02:13:30;;;;;;;17.83;15.43;;;14.50;99.90;;;;;;5092118;28;20442;-58
2021/05/12 02:15:58;;;;;;;17.33;15.52;;;14.30;99.90;;;;;;5092306;28;20196;-60
2021/05/12 02:18:26;;;;;;;20.38;16.02;;;14.30;99.90;;;;;;5092166;28;20755;-61
2021/05/12 02:20:53;;;;;;;17.67;14.82;;;14.40;99.90;;;;;;5092563;28;20620;-58
2021/05/12 02:23:22;;;;;;;16.00;14.40;;;14.40;99.90;;;;;;5092283;28;20219;-59
2021/05/12 02:25:49;;;;;;;16.98;15.00;;;14.50;99.90;;;;;;5092356;28;20242;-58
2021/05/12 02:28:17;;;;;;;17.35;15.60;;;14.40;99.90;;;;;;5092350;28;20725;-59
2021/05/12 02:30:46;;;;;;;16.73;14.93;;;14.40;99.90;;;;;;5092050;28;20576;-60
2021/05/12 02:33:13;;;;;;;18.13;15.10;;;14.40;99.90;;;;;;5092075;28;20648;-59
2021/05/12 02:35:41;;;;;;;19.27;15.23;;;14.30;99.90;;;;;;5092405;28;20231;-60
2021/05/12 02:38:09;;;;;;;16.92;14.45;;;14.30;99.90;;;;;;5094622;28;20236;-58
2021/05/12 02:40:36;;;;;;;16.67;14.82;;;14.30;99.90;;;;;;5095861;28;20206;-59
2021/05/12 02:43:04;;;;;;;16.88;15.00;;;14.30;99.90;;;;;;5096012;28;20286;-59
2021/05/12 02:45:33;;;;;;;16.55;14.30;;;14.30;99.90;;;;;;5096085;28;20625;-60
2021/05/12 02:48:02;;;;;;;18.52;15.50;;;14.30;99.90;;;;;;5095974;28;20230;-59
2021/05/12 02:50:31;;;;;;;16.92;15.13;;;14.30;99.90;;;;;;5095738;28;20686;-58
2021/05/12 02:53:00;;;;;;;19.40;15.68;;;14.30;99.90;;;;;;5095627;28;20287;-59
2021/05/12 02:55:28;;;;;;;16.95;15.15;;;14.20;99.90;;;;;;5095861;28;20278;-60
2021/05/12 02:57:57;;;;;;;17.25;15.57;;;14.20;99.90;;;;;;5095346;28;20232;-59
2021/05/12 03:00:27;;;;;;;17.58;15.70;;;14.30;99.90;;;;;;5095667;28;20232;-60
2021/05/12 03:02:55;;;;;;;18.63;16.50;;;14.30;99.90;;;;;;5095615;28;20191;-59
2021/05/12 03:05:24;;;;;;;17.75;15.82;;;14.30;99.90;;;;;;5095730;28;20196;-60
2021/05/12 03:07:51;;;;;;;19.30;17.17;;;14.50;99.90;;;;;;5095354;28;20295;-59
2021/05/12 03:10:21;;;;;;;19.15;16.27;;;14.40;99.90;;;;;;5095702;28;20223;-59
2021/05/12 03:12:49;;;;;;;16.85;15.25;;;14.40;99.90;;;;;;5095311;28;20254;-58
2021/05/12 03:15:19;;;;;;;17.08;15.27;;;14.60;99.90;;;;;;5095483;28;20204;-59
2021/05/12 03:17:48;;;;;;;18.40;15.43;;;14.60;99.90;;;;;;5095534;28;20208;-59
2021/05/12 03:20:16;;;;;;;16.85;14.80;;;14.70;99.90;;;;;;5095438;28;20204;-59
2021/05/12 03:22:45;;;;;;;16.08;14.45;;;14.70;99.90;;;;;;5095466;28;20200;-59
2021/05/12 03:25:13;;;;;;;17.10;14.70;;;14.60;99.90;;;;;;5095387;28;20291;-59
2021/05/12 03:27:41;;;;;;;17.00;15.32;;;14.60;99.90;;;;;;5095172;28;20253;-59
2021/05/12 03:30:11;;;;;;;16.63;14.88;;;14.60;99.90;;;;;;5095287;28;20228;-59
2021/05/12 03:32:40;;;;;;;16.25;14.57;;;14.60;99.90;;;;;;5095299;28;20184;-58
2021/05/12 03:35:09;;;;;;;17.27;15.00;;;14.60;99.90;;;;;;5094947;28;20739;-59
2021/05/12 03:37:36;;;;;;;16.52;14.82;;;14.60;99.90;;;;;;5094790;28;20318;-59
2021/05/12 03:40:06;;;;;;;16.13;14.43;;;14.60;99.90;;;;;;5094980;28;20227;-59
2021/05/12 03:42:34;;;;;;;15.77;14.18;;;14.60;99.90;;;;;;5095108;28;20196;-60
2021/05/12 03:45:02;;;;;;;15.40;13.90;;;14.60;99.90;;;;;;5094663;28;20294;-60
2021/05/12 03:47:29;;;;;;;15.68;14.13;;;14.60;99.90;;;;;;5094441;28;20230;-59
2021/05/12 03:49:56;;;;;;;15.30;13.68;;;14.60;99.90;;;;;;5094838;28;20294;-58
2021/05/12 03:52:24;;;;;;;14.88;13.48;;;14.60;99.90;;;;;;5094804;28;20296;-59
2021/05/12 03:54:51;;;;;;;15.13;13.63;;;14.60;99.90;;;;;;5094762;28;20227;-59
2021/05/12 03:57:19;;;;;;;14.73;13.23;;;14.60;99.90;;;;;;5094571;28;20314;-59
2021/05/12 03:59:47;;;;;;;15.95;14.15;;;14.60;99.90;;;;;;5094356;28;20200;-58
2021/05/12 04:02:14;;;;;;;14.73;13.23;;;14.60;99.90;;;;;;5094534;28;20203;-59
2021/05/12 04:04:42;;;;;;;15.00;13.40;;;14.70;99.90;;;;;;5094129;28;20687;-60
2021/05/12 04:07:09;;;;;;;14.48;13.02;;;14.70;99.90;;;;;;5094381;28;20192;-60
2021/05/12 04:09:36;;;;;;;14.95;13.45;;;14.70;99.90;;;;;;5094003;28;20664;-59
2021/05/12 04:12:05;;;;;;;14.55;13.07;;;14.80;99.90;;;;;;5093905;28;20204;-59
2021/05/12 04:14:33;;;;;;;14.80;13.30;;;14.80;99.90;;;;;;5093672;28;20207;-59
2021/05/12 04:17:02;;;;;;;14.07;12.77;;;14.90;99.90;;;;;;5093749;28;20249;-60
2021/05/12 04:19:29;;;;;;;14.35;12.93;;;14.80;99.90;;;;;;5093610;28;20769;-59
2021/05/12 04:21:57;;;;;;;13.85;12.52;;;14.90;99.90;;;;;;5093909;28;20550;-59
2021/05/12 04:24:24;;;;;;;13.65;12.25;;;14.90;99.90;;;;;;5093792;28;20200;-59
2021/05/12 04:26:51;;;;;;;14.93;13.05;;;14.90;99.90;;;;;;5093831;28;20295;-59
2021/05/12 04:29:20;;;;;;;14.52;13.02;;;14.80;99.90;;;;;;5093910;28;20207;-60
2021/05/12 04:31:48;;;;;;;14.63;13.23;;;14.80;99.90;;;;;;5093661;28;20200;-59
2021/05/12 04:34:16;;;;;;;14.07;12.68;;;14.80;99.90;;;;;;5093661;28;20200;-59
2021/05/12 04:36:43;;;;;;;15.02;13.50;;;15.00;99.90;;;;;;5093880;28;20196;-58
2021/05/12 04:39:11;;;;;;;13.30;12.00;;;15.00;99.90;;;;;;5093606;28;20263;-59
2021/05/12 04:41:38;;;;;;;13.05;11.75;;;14.90;99.90;;;;;;5093368;28;20207;-60
2021/05/12 04:44:06;;;;;;;15.00;13.07;;;14.90;99.90;;;;;;5093335;28;20860;-60
2021/05/12 04:46:33;;;;;;;13.00;11.77;;;14.90;99.90;;;;;;5093631;28;20229;-58
2021/05/12 04:49:05;;;;;;;14.10;12.00;;;15.00;99.90;;;;;;5093632;28;20200;-60
2021/05/12 04:51:34;;;;;;;13.80;12.40;;;15.20;99.90;;;;;;5093694;28;20279;-59
2021/05/12 04:54:01;;;;;;;13.35;12.05;;;15.10;99.90;;;;;;5093511;28;20236;-59
2021/05/12 04:56:28;;;;;;;13.27;11.90;;;15.20;99.90;;;;;;5093185;28;20225;-58
2021/05/12 04:58:56;;;;;;;14.07;12.20;;;15.20;99.90;;;;;;5093015;28;20328;-60
2021/05/12 05:01:23;;;;;;;14.10;12.70;;;15.30;99.90;;;;;;5093009;28;20196;-59
2021/05/12 05:03:50;;;;;;;13.35;12.05;;;15.40;99.90;;;;;;5093416;28;20292;-58
2021/05/12 05:06:19;;;;;;;13.30;12.00;;;15.40;99.90;;;;;;5093381;28;20302;-60
2021/05/12 05:08:47;;;;;;;14.27;12.07;;;15.30;99.90;;;;;;5093138;28;20196;-59
2021/05/12 05:11:14;;;;;;;14.07;12.57;;;15.20;99.90;;;;;;5093332;28;20196;-59
2021/05/12 05:13:41;;;;;;;13.60;12.15;;;15.10;99.90;;;;;;5092227;28;20208;-59
2021/05/12 05:16:09;;;;;;;13.45;12.10;;;15.10;99.90;;;;;;5093040;28;20200;-59
2021/05/12 05:18:37;;;;;;;14.40;12.90;;;15.10;99.90;;;;;;5092485;28;20706;-59
2021/05/12 05:21:06;;;;;;;14.07;12.63;;;15.10;99.90;;;;;;5092935;28;20291;-59
2021/05/12 05:23:35;;;;;;;14.13;12.73;;;15.10;99.90;;;;;;5092674;28;20249;-59
2021/05/12 05:26:03;;;;;;;14.50;12.68;;;15.10;99.90;;;;;;5093012;28;20303;-59
2021/05/12 05:28:31;;;;;;;13.93;12.52;;;15.00;99.90;;;;;;5092652;28;20287;-59
2021/05/12 05:30:58;;;;;;;13.88;12.48;;;14.90;99.90;;;;;;5092751;28;20228;-60
2021/05/12 05:33:25;;;;;;;14.82;13.40;;;15.00;99.90;;;;;;5092788;28;20242;-59
2021/05/12 05:35:53;;;;;;;14.73;13.07;;;15.00;99.90;;;;;;5092319;28;20200;-59
2021/05/12 05:38:21;;;;;;;13.63;12.25;;;15.00;99.90;;;;;;5092168;28;20232;-59
2021/05/12 05:40:49;;;;;;;13.75;11.98;;;15.10;99.90;;;;;;5092373;28;20231;-59
2021/05/12 05:43:16;;;;;;;14.55;13.05;;;15.10;99.90;;;;;;5092450;28;20200;-59
2021/05/12 05:45:44;;;;;;;14.13;12.63;;;15.10;99.90;;;;;;5092644;28;20206;-59
2021/05/12 05:48:11;;;;;;;14.30;12.85;;;15.10;99.90;;;;;;5092616;28;20203;-59
2021/05/12 05:50:38;;;;;;;15.15;13.55;;;15.10;99.90;;;;;;5092754;28;20204;-59
2021/05/12 05:53:06;;;;;;;14.30;12.80;;;15.10;99.90;;;;;;5092584;28;20295;-59
2021/05/12 05:55:33;;;;;;;14.55;13.05;;;15.10;99.90;;;;;;5092435;28;20209;-59
2021/05/12 05:58:02;;;;;;;14.50;13.00;;;15.10;99.90;;;;;;5092435;28;20216;-58
2021/05/12 06:00:29;;;;;;;15.23;13.60;;;15.30;99.90;;;;;;5092277;28;20226;-59
2021/05/12 06:02:57;;;;;;;13.95;12.55;;;15.20;99.90;;;;;;5092641;28;20291;-59
2021/05/12 06:05:24;;;;;;;13.75;11.95;;;15.30;99.90;;;;;;5092622;28;20204;-58
2021/05/12 06:07:51;;;;;;;13.63;12.23;;;15.20;99.90;;;;;;5092444;28;20686;-59
2021/05/12 06:10:19;;;;;;;14.57;13.07;;;15.10;99.90;;;;;;5092257;28;20254;-58
2021/05/12 06:12:46;;;;;;;14.15;12.65;;;15.20;99.90;;;;;;5096178;28;20231;-60
2021/05/12 06:15:19;;;;;;;14.88;13.38;;;15.10;99.90;;;;;;5096477;28;20286;-58
2021/05/12 06:17:51;;;;;;;14.52;13.13;;;15.10;99.90;;;;;;5096310;28;20644;-60
2021/05/12 06:20:19;;;;;;;14.73;13.23;;;15.10;99.90;;;;;;5096666;28;20348;-63
2021/05/12 06:22:47;;;;;;;13.52;12.13;;;15.20;99.90;;;;;;5096461;28;20206;-64
2021/05/12 06:25:14;;;;;;;14.20;12.70;;;15.20;99.90;;;;;;5095937;28;20296;-63
2021/05/12 06:27:42;;;;;;;13.65;12.18;;;15.20;99.90;;;;;;5095701;28;20200;-63
2021/05/12 06:30:10;;;;;;;15.35;13.27;;;15.20;99.90;;;;;;5095726;28;20258;-64
2021/05/12 06:32:39;;;;;;;15.82;12.98;;;15.20;99.90;;;;;;5096334;28;20238;-63
2021/05/12 06:35:07;;;;;;;14.30;12.80;;;15.30;99.90;;;;;;5096175;28;20302;-63
2021/05/12 06:37:34;;;;;;;16.67;13.90;;;15.30;99.90;;;;;;5095627;28;20318;-63
2021/05/12 06:40:01;;;;;;;13.65;12.23;;;15.30;99.90;;;;;;5095842;28;20258;-63
2021/05/12 06:42:29;;;;;;;14.90;13.30;;;15.30;99.90;;;;;;5095526;28;20675;-64
2021/05/12 06:44:56;;;;;;;14.10;12.68;;;15.30;99.90;;;;;;5095497;28;20200;-64
2021/05/12 06:47:23;;;;;;;13.50;12.10;;;15.30;99.90;;;;;;5095869;28;20202;-62
2021/05/12 06:49:52;;;;;;;14.73;13.23;;;15.30;99.90;;;;;;5095139;28;20215;-62
2021/05/12 06:52:19;;;;;;;14.38;12.80;;;15.30;99.90;;;;;;5095857;28;20336;-62
2021/05/12 06:54:46;;;;;;;14.73;13.02;;;15.30;99.90;;;;;;5095076;28;20204;-66
2021/05/12 06:57:13;;;;;;;15.48;13.55;;;15.30;99.90;;;;;;5095045;28;20295;-63
2021/05/12 06:59:41;;;;;;;15.75;14.15;;;15.30;99.90;;;;;;5095210;28;20303;-64
2021/05/12 07:02:08;;;;;;;16.27;13.65;;;15.30;99.90;;;;;;5095745;28;20200;-65
2021/05/12 07:04:36;;;;;;;16.05;14.15;;;15.20;99.90;;;;;;5095693;28;20200;-64
2021/05/12 07:07:04;;;;;;;16.45;13.85;;;15.20;99.90;;;;;;5095843;28;20204;-64
2021/05/12 07:09:31;;;;;;;17.38;14.23;;;15.10;99.90;;;;;;5095303;28;20286;-64
2021/05/12 07:11:59;;;;;;;15.00;13.40;;;15.10;99.90;;;;;;5095420;28;20286;-63
2021/05/12 07:14:26;;;;;;;14.95;13.35;;;15.00;99.90;;;;;;5095115;28;20235;-63
2021/05/12 07:16:53;;;;;;;15.98;14.00;;;15.00;99.90;;;;;;5095318;28;20407;-64
2021/05/12 07:19:22;;;;;;;15.55;13.40;;;15.00;99.90;;;;;;5095261;28;20231;-63
2021/05/12 07:21:49;;;;;;;14.68;13.15;;;15.10;99.90;;;;;;5095159;28;20261;-63
2021/05/12 07:24:18;;;;;;;15.02;13.43;;;15.30;99.90;;;;;;5093830;28;20287;-63
2021/05/12 07:26:45;;;;;;;14.68;12.52;;;15.40;99.90;;;;;;5094949;28;20235;-64
2021/05/12 07:29:13;;;;;;;14.63;11.68;;;15.40;99.90;;;;;;5094962;28;20192;-64
2021/05/12 07:31:41;;;;;;;13.70;12.30;;;15.40;99.90;;;;;;5095295;28;20232;-63
2021/05/12 07:34:10;;;;;;;13.52;11.77;;;15.40;99.90;;;;;;5095201;28;20200;-63
2021/05/12 07:36:38;;;;;;;14.45;12.95;;;15.40;99.90;;;;;;5095051;28;20200;-64
2021/05/12 07:39:07;;;;;;;14.20;12.27;;;15.40;99.90;;;;;;5094578;28;20246;-64
2021/05/12 07:41:35;;;;;;;14.63;11.93;;;15.40;99.90;;;;;;5094689;28;20307;-64
2021/05/12 07:44:03;;;;;;;16.60;12.95;;;15.30;99.90;;;;;;5094419;28;20235;-63
2021/05/12 07:46:31;;;;;;;14.40;12.38;;;15.40;99.90;;;;;;5094868;28;20736;-64
2021/05/12 07:48:59;;;;;;;15.30;13.38;;;15.50;99.90;;;;;;5095002;28;20623;-62
2021/05/12 07:51:26;;;;;;;14.93;12.90;;;15.40;99.90;;;;;;5094850;28;20288;-63
2021/05/12 07:53:54;;;;;;;16.60;14.32;;;15.40;99.90;;;;;;5094752;28;20195;-64
2021/05/12 07:56:21;;;;;;;18.05;15.32;;;15.40;99.90;;;;;;5094623;28;20196;-63
2021/05/12 07:58:50;;;;;;;18.38;16.38;;;15.30;99.90;;;;;;5093902;28;20230;-64
2021/05/12 08:01:20;;;;;;;18.55;15.95;;;15.20;99.90;;;;;;5094546;28;20334;-63
2021/05/12 08:03:53;;;;;;;19.50;16.73;;;15.20;99.90;;;;;;5094173;28;20600;-64
2021/05/12 08:06:20;;;;;;;21.17;17.73;;;15.20;99.90;;;;;;5094364;28;20204;-63
2021/05/12 08:08:48;;;;;;;21.10;18.80;;;15.10;99.90;;;;;;5094264;28;20778;-63
2021/05/12 08:11:15;;;;;;;21.33;17.75;;;15.00;99.90;;;;;;5094500;28;20269;-63
2021/05/12 08:13:42;;;;;;;20.23;17.35;;;14.90;99.90;;;;;;5094176;28;20649;-63
2021/05/12 08:16:11;;;;;;;19.42;17.17;;;14.90;99.90;;;;;;5094217;28;20597;-63
2021/05/12 08:18:38;;;;;;;21.33;19.02;;;14.80;99.90;;;;;;5093783;28;20676;-63
2021/05/12 08:21:06;;;;;;;20.85;18.58;;;14.90;99.90;;;;;;5093745;28;20584;-64
2021/05/12 08:23:34;;;;;;;20.55;18.33;;;15.00;99.90;;;;;;5094128;28;20200;-63
2021/05/12 08:26:01;;;;;;;20.73;18.10;;;15.20;99.90;;;;;;5093972;28;20295;-63
2021/05/12 08:28:29;;;;;;;20.80;18.48;;;15.30;99.90;;;;;;5093619;28;20232;-63
2021/05/12 08:30:57;;;;;;;19.35;17.20;;;15.30;99.90;;;;;;5093823;28;20204;-64
2021/05/12 08:33:25;;;;;;;19.35;17.27;;;15.40;99.90;;;;;;5094210;28;20204;-64
2021/05/12 08:35:53;;;;;;;18.77;16.77;;;15.30;99.90;;;;;;5094039;28;20223;-63
2021/05/12 08:38:24;;;;;;;19.15;16.63;;;15.30;99.90;;;;;;5093543;28;20245;-64
2021/05/12 08:40:54;;;;;;;19.75;17.65;;;15.20;99.90;;;;;;5093303;28;20301;-62
2021/05/12 08:43:23;;;;;;;19.58;15.88;;;15.20;99.90;;;;;;5093109;28;20215;-63
2021/05/12 08:45:52;;;;;;;16.77;14.88;;;15.20;99.90;;;;;;5093317;28;20730;-64
2021/05/12 08:48:19;;;;;;;17.20;15.25;;;15.20;99.90;;;;;;5092960;28;20674;-63
2021/05/12 08:50:48;;;;;;;17.30;14.60;;;15.20;99.90;;;;;;5092942;28;20215;-62
2021/05/12 08:53:16;;;;;;;15.52;13.93;;;15.20;99.90;;;;;;5092791;28;20216;-63
2021/05/12 08:55:45;;;;;;;16.25;14.50;;;15.10;99.90;;;;;;5092901;28;20223;-63
2021/05/12 08:58:13;;;;;;;16.90;14.38;;;15.10;99.90;;;;;;5093552;28;20294;-63
2021/05/12 09:00:41;;;;;;;17.20;13.90;;;15.20;99.90;;;;;;5093199;28;20208;-63
2021/05/12 09:03:10;;;;;;;16.60;14.02;;;15.30;99.90;;;;;;5092869;28;20572;-62
2021/05/12 09:05:37;;;;;;;18.08;14.40;;;15.30;99.90;;;;;;5093068;28;20279;-63
2021/05/12 09:08:06;;;;;;;16.73;13.90;;;15.40;99.90;;;;;;5086173;28;20722;-63
2021/05/12 09:10:34;;;;;;;18.42;14.43;;;15.30;99.90;;;;;;5092609;28;20196;-63
2021/05/12 09:13:01;;;;;;;17.38;14.38;;;15.30;99.90;;;;;;5093066;28;20204;-63
2021/05/12 09:15:30;;;;;;;20.10;16.33;;;15.20;99.90;;;;;;5092842;28;20299;-63
2021/05/12 09:18:01;;;;;;;17.70;15.80;;;15.10;99.90;;;;;;5092549;28;20208;-63
2021/05/12 09:20:31;;;;;;;18.02;16.05;;;15.10;99.90;;;;;;5093113;28;20211;-63
2021/05/12 09:23:08;;;;;;;17.60;15.38;;;14.80;99.90;;;;;;5093132;28;20200;-63
2021/05/12 09:25:37;;;;;;;20.40;16.05;;;14.80;99.90;;;;;;5093111;28;20628;-63
2021/05/12 09:28:11;;;;;;;21.15;16.77;;;14.70;99.90;;;;;;5092694;28;20580;-62
2021/05/12 09:30:39;;;;;;;20.42;16.88;;;14.80;99.90;;;;;;5092844;28;20184;-64
2021/05/12 09:33:08;;;;;;;20.17;17.50;;;14.90;99.90;;;;;;5090315;28;20241;-63
2021/05/12 09:35:43;;;;;;;20.02;17.70;;;14.80;99.90;;;;;;5089954;28;20605;-64
2021/05/12 09:38:19;;;;;;;19.20;16.98;;;14.80;99.90;;;;;;5092077;28;20327;-63
2021/05/12 09:40:59;;;;;;;22.02;18.77;;;14.90;99.90;;;;;;5092244;28;20552;-63
2021/05/12 09:43:28;;;;;;;21.88;18.55;;;14.90;99.90;;;;;;5092036;28;20241;-63
2021/05/12 09:46:15;;;;;;;22.33;18.25;;;14.90;99.90;;;;;;5091993;28;20291;-64
2021/05/12 09:48:47;;;;;;;24.15;18.38;;;14.80;99.90;;;;;;5092072;28;20188;-63
2021/05/12 09:51:18;;;;;;;24.23;18.92;;;14.80;99.90;;;;;;5092106;28;20275;-64
2021/05/12 09:54:04;;;;;;;22.13;18.13;;;14.80;99.90;;;;;;5092385;28;20199;-64
2021/05/12 09:56:43;;;;;;;24.42;18.77;;;14.80;99.90;;;;;;5092260;28;20275;-63
2021/05/12 09:59:14;;;;;;;22.40;18.77;;;14.80;99.90;;;;;;5091812;28;20298;-63
2021/05/12 10:01:44;;;;;;;24.13;18.83;;;14.80;99.90;;;;;;5092214;28;20184;-63
2021/05/12 10:04:32;;;;;;;23.48;20.02;;;14.70;99.90;;;;;;5091672;28;20215;-63
2021/05/12 10:07:00;;;;;;;21.80;18.10;;;14.70;99.90;;;;;;5092021;28;20228;-62
2021/05/12 10:09:30;;;;;;;25.40;19.67;;;14.60;99.90;;;;;;5091984;28;20855;-64
2021/05/12 10:12:17;;;;;;;21.40;18.80;;;14.50;99.90;;;;;;5092266;28;20192;-63
2021/05/12 10:14:46;;;;;;;22.08;18.23;;;14.50;99.90;;;;;;5091792;28;20184;-63
2021/05/12 10:17:16;;;;;;;22.23;18.43;;;14.40;99.90;;;;;;5092052;28;20246;-62
2021/05/12 10:19:45;;;;;;;23.48;18.65;;;14.30;99.90;;;;;;5090472;28;20204;-63
2021/05/12 10:22:14;;;;;;;23.30;19.27;;;14.20;99.90;;;;;;5091667;28;20287;-64
2021/05/12 10:24:44;;;;;;;22.03;18.67;;;14.20;99.90;;;;;;5091805;28;20211;-64
2021/05/12 10:27:13;;;;;;;22.65;18.52;;;14.20;99.90;;;;;;5091959;28;20690;-63
2021/05/12 10:29:47;;;;;;;24.35;18.25;;;14.20;99.90;;;;;;5091905;28;20196;-65
2021/05/12 10:32:19;;;;;;;20.80;17.73;;;14.20;99.90;;;;;;5091996;28;20189;-64
2021/05/12 10:34:49;;;;;;;21.50;18.77;;;14.20;99.90;;;;;;5092087;28;20591;-64
2021/05/12 10:37:24;;;;;;;20.90;18.47;;;14.20;99.90;;;;;;5091257;28;20263;-65
2021/05/12 10:39:59;;;;;;;22.38;18.73;;;14.30;99.90;;;;;;5091469;28;20264;-64
2021/05/12 10:42:52;;;;;;;23.30;18.20;;;14.30;99.90;;;;;;5090918;28;20195;-64
2021/05/12 10:45:34;;;;;;;20.50;17.87;;;14.20;99.90;;;;;;5091643;28;20619;-64
2021/05/12 10:48:02;;;;;;;22.08;18.60;;;14.30;99.90;;;;;;5091522;28;20189;-64
2021/05/12 10:50:43;;;;;;;21.80;18.40;;;14.20;99.90;;;;;;5091666;28;20207;-63
2021/05/12 10:53:17;;;;;;;21.20;17.92;;;14.30;99.90;;;;;;5091737;28;20260;-63
2021/05/12 10:56:05;;;;;;;23.83;19.23;;;14.30;99.90;;;;;;5091598;28;20218;-64
2021/05/12 10:58:37;;;;;;;23.33;18.00;;;14.10;99.90;;;;;;5092438;28;20196;-64
2021/05/12 11:01:06;;;;;;;20.97;18.73;;;14.10;99.90;;;;;;5095354;28;20660;-64
2021/05/12 11:04:13;;;;;;;22.27;18.15;;;14.10;99.90;;;;;;5094943;28;20283;-63
2021/05/12 11:07:11;;;;;;;29.87;19.70;;;14.00;99.90;;;;;;5094020;28;20257;-63
2021/05/12 11:09:46;;;;;;;23.73;18.97;;;13.90;99.90;;;;;;5095014;28;20233;-63
2021/05/12 11:12:23;;;;;;;24.70;18.80;;;14.00;99.90;;;;;;5094978;28;20234;-63
2021/05/12 11:14:56;;;;;;;22.30;18.63;;;14.00;99.90;;;;;;5095165;28;20214;-63
2021/05/12 11:17:41;;;;;;;23.20;19.03;;;14.00;99.90;;;;;;5094605;28;20625;-63
2021/05/12 11:20:17;;;;;;;28.63;18.27;;;13.90;99.90;;;;;;5095104;28;20620;-64
2021/05/12 11:22:46;;;;;;;27.75;19.08;;;14.00;99.90;;;;;;5094982;28;20271;-63
2021/05/12 11:25:19;;;;;;;20.55;16.42;;;14.00;99.90;;;;;;5094772;28;20204;-62
2021/05/12 11:28:33;;;;;;;18.63;16.17;;;14.10;99.90;;;;;;5094923;28;20185;-63
2021/05/12 11:31:26;;;;;;;16.58;14.80;;;14.00;99.90;;;;;;5094917;28;20309;-63
2021/05/12 11:33:54;;;;;;;20.70;15.90;;;14.00;99.90;;;;;;5094572;28;20238;-63
2021/05/12 11:36:27;;;;;;;18.17;15.83;;;14.00;99.90;;;;;;5094339;28;20282;-64
2021/05/12 11:38:55;;;;;;;17.73;15.60;;;14.00;99.90;;;;;;5094322;28;20238;-63
2021/05/12 11:41:24;;;;;;;18.40;15.20;;;14.00;99.90;;;;;;5094614;28;20307;-63
2021/05/12 11:43:55;;;;;;;17.00;14.93;;;14.00;99.90;;;;;;5094144;28;20204;-64
2021/05/12 11:46:25;;;;;;;17.40;14.00;;;13.80;99.90;;;;;;5093849;28;20192;-64
2021/05/12 11:48:55;;;;;;;19.77;15.25;;;13.80;99.90;;;;;;5094265;28;20191;-64
2021/05/12 11:51:32;;;;;;;17.47;15.10;;;13.70;99.90;;;;;;5094223;28;20184;-64
2021/05/12 11:54:01;;;;;;;19.40;16.23;;;13.70;99.90;;;;;;5094331;28;20184;-64
2021/05/12 11:56:29;;;;;;;18.93;15.33;;;13.60;99.90;;;;;;5093858;28;20204;-64
2021/05/12 11:59:00;;;;;;;21.33;15.50;;;13.60;99.90;;;;;;5093338;28;20235;-64
2021/05/12 12:01:29;;;;;;;19.10;15.53;;;13.60;99.90;;;;;;5093978;28;20238;-64
2021/05/12 12:04:05;;;;;;;19.33;14.68;;;13.70;99.90;;;;;;5093995;28;20200;-64
2021/05/12 12:06:39;;;;;;;17.47;13.57;;;13.90;99.90;;;;;;5093124;28;20683;-64
2021/05/12 12:09:06;;;;;;;17.93;14.13;;;14.00;99.90;;;;;;5093596;28;20187;-64
2021/05/12 12:11:34;;;;;;;17.75;12.27;;;13.90;99.90;;;;;;5093779;28;20239;-63
2021/05/12 12:14:05;;;;;;;15.33;12.20;;;13.90;99.90;;;;;;5093489;28;20210;-63
2021/05/12 12:16:34;;;;;;;16.27;12.17;;;14.10;99.90;;;;;;5093549;28;20279;-63
2021/05/12 12:19:10;;;;;;;13.13;11.23;;;14.20;99.90;;;;;;5092340;28;20212;-63
2021/05/12 12:21:38;;;;;;;12.73;10.85;;;14.40;99.90;;;;;;5090853;28;20294;-63
2021/05/12 12:24:10;;;;;;;12.85;10.20;;;14.50;99.90;;;;;;5093500;28;20654;-64
2021/05/12 12:26:41;;;;;;;11.90;10.32;;;14.50;99.90;;;;;;5083838;28;20204;-64
2021/05/12 12:29:11;;;;;;;12.98;10.32;;;14.40;99.90;;;;;;5073496;28;20268;-63
2021/05/12 12:31:43;;;;;;;14.10;11.00;;;14.20;99.90;;;;;;5073771;28;20236;-64
2021/05/12 12:34:17;;;;;;;12.93;10.75;;;14.00;99.90;;;;;;5073682;28;20219;-63
2021/05/12 12:36:59;;;;;;;14.60;11.33;;;13.80;99.90;;;;;;5078078;28;20181;-63
2021/05/12 12:39:48;;;;;;;12.68;10.20;;;13.70;99.90;;;;;;5093653;28;20184;-62
2021/05/12 12:42:22;;;;;;;12.23;10.23;;;13.70;99.90;;;;;;5093224;28;20180;-60